Terminal Aerodrome Forecast
Issued by NWS

Home | Current Version | Previous Version | Text Only | Print | Product List | Glossary On
Versions: 1 2 3 4 5 6 7 8 9 10 11 12 13 14 15
656
FTPA31 PHFO 110205 AAA
TAFHLI
TAF AMD
PHLI 110205Z 1102/1124 14005KT P6SM VCSH SCT018 BKN040
      TEMPO 1102/1104 VRB05KT 4SM SHRA BKN017 OVC030
     FM110600 27006KT P6SM SCT023 BKN045
     FM111500 02005KT P6SM FEW025 SCT050
     FM112000 05005KT P6SM FEW025 SCT045=

USA.gov is the U.S. government's official web portal to all federal, state and local government web resources and services.